Time;durP1;ratioP1;P1;durP2;ratioP2;P2;SDS_P1;SDS_P2;PMS_P1;PMS_P2;Temp;Humidity;BMP_temperature;BMP_pressure;BME280_temperature;BME280_humidity;BME280_pressure;Samples;Min_cycle;Max_cycle;Signal;HPM_P1;HPM_P2
2021/09/03 00:00:19;;;;;;;6.10;3.67;;;;;;;16.22;55.90;102025.22;6181803;23;20234;-66
2021/09/03 00:02:46;;;;;;;6.17;3.77;;;;;;;15.88;56.09;101982.91;6181250;23;20151;-66
2021/09/03 00:05:17;;;;;;;8.00;4.33;;;;;;;15.56;57.32;101966.09;6182425;23;20153;-66
2021/09/03 00:07:43;;;;;;;5.93;4.47;;;;;;;16.05;57.36;102017.25;6181860;23;20261;-66
2021/09/03 00:10:10;;;;;;;6.17;4.13;;;;;;;15.88;57.00;101982.13;6181913;23;20156;-66
2021/09/03 00:12:37;;;;;;;6.30;4.10;;;;;;;15.94;56.79;101981.16;6181369;23;20153;-66
2021/09/03 00:15:04;;;;;;;6.23;4.17;;;;;;;15.77;57.10;101950.84;6182113;23;20507;-66
2021/09/03 00:17:30;;;;;;;7.23;4.60;;;;;;;16.20;56.41;102021.28;6181720;23;20228;-66
2021/09/03 00:19:56;;;;;;;8.00;4.20;;;;;;;15.65;56.70;101935.56;6182109;23;20172;-66
2021/09/03 00:22:21;;;;;;;5.93;4.30;;;;;;;15.96;57.54;102012.28;6181130;23;20149;-66
2021/09/03 00:24:47;;;;;;;7.97;4.73;;;;;;;15.92;58.53;102019.94;6182252;23;20498;-66
2021/09/03 00:27:12;;;;;;;6.60;3.97;;;;;;;15.82;57.40;101990.25;6181505;23;20159;-66
2021/09/03 00:29:38;;;;;;;9.47;4.90;;;;;;;15.52;57.71;101951.41;6182095;23;20153;-66
2021/09/03 00:32:03;;;;;;;6.17;4.50;;;;;;;15.67;57.98;101989.00;6181201;23;20549;-66
2021/09/03 00:34:29;;;;;;;6.33;4.50;;;;;;;15.93;58.64;102018.72;6180617;23;20157;-66
2021/09/03 00:36:55;;;;;;;7.03;4.23;;;;;;;15.86;59.18;102001.31;6182279;23;20178;-66
2021/09/03 00:39:20;;;;;;;9.17;4.57;;;;;;;15.94;59.36;102017.50;6181181;23;20574;-66
2021/09/03 00:41:46;;;;;;;7.27;4.83;;;;;;;16.01;59.01;102027.72;6181673;23;20157;-66
2021/09/03 00:44:12;;;;;;;6.33;4.77;;;;;;;15.97;59.24;102027.03;6181132;23;20215;-66
2021/09/03 00:46:37;;;;;;;7.70;4.77;;;;;;;15.65;59.70;101974.69;6181936;23;20195;-66
2021/09/03 00:49:03;;;;;;;6.23;4.40;;;;;;;15.72;59.65;101991.28;6181611;23;20162;-66
2021/09/03 00:51:29;;;;;;;8.50;4.67;;;;;;;15.92;59.86;102014.34;6181364;23;20211;-66
2021/09/03 00:53:54;;;;;;;8.03;4.77;;;;;;;15.97;60.67;102021.44;6181164;23;20160;-66
2021/09/03 00:56:20;;;;;;;10.87;4.80;;;;;;;15.65;60.27;101973.88;6181646;23;20644;-65
2021/09/03 00:58:45;;;;;;;10.10;4.30;;;;;;;15.28;60.51;101954.75;6181642;23;20157;-66
2021/09/03 01:01:11;;;;;;;8.37;4.77;;;;;;;15.62;59.35;102011.88;6181642;23;20152;-66
2021/09/03 01:03:36;;;;;;;7.27;4.20;;;;;;;15.63;59.78;102005.06;6180464;23;20156;-66
2021/09/03 01:06:04;;;;;;;9.63;5.03;;;;;;;15.73;59.41;102015.19;6181514;23;20159;-66
2021/09/03 01:08:32;;;;;;;7.83;4.70;;;;;;;15.25;60.57;101947.22;6181869;23;20709;-66
2021/09/03 01:10:58;;;;;;;7.17;4.57;;;;;;;15.64;60.85;102017.03;6181115;23;20149;-66
2021/09/03 01:13:25;;;;;;;12.20;4.90;;;;;;;15.21;60.83;101966.84;6180957;23;20162;-66
2021/09/03 01:15:50;;;;;;;9.80;5.10;;;;;;;15.44;61.03;102016.28;6181365;23;20234;-66
2021/09/03 01:18:16;;;;;;;11.83;5.03;;;;;;;15.12;61.16;101965.88;6181743;23;20154;-66
2021/09/03 01:20:41;;;;;;;10.83;5.20;;;;;;;15.06;60.75;101971.16;6181515;23;20212;-66
2021/09/03 01:23:07;;;;;;;11.30;5.13;;;;;;;15.26;60.61;102016.63;6181073;23;20595;-66
2021/09/03 01:25:33;;;;;;;8.33;4.83;;;;;;;15.09;60.52;101991.84;6181296;23;20159;-66
2021/09/03 01:27:58;;;;;;;10.97;5.20;;;;;;;15.28;60.70;102022.59;6181932;23;20158;-66
2021/09/03 01:30:24;;;;;;;8.17;4.70;;;;;;;15.33;60.89;102019.31;6180653;23;20163;-66
2021/09/03 01:32:50;;;;;;;10.83;4.60;;;;;;;15.27;60.81;102003.47;6181255;23;20153;-66
2021/09/03 01:35:16;;;;;;;12.57;5.30;;;;;;;15.33;61.07;102015.72;6181155;23;20158;-66
2021/09/03 01:37:42;;;;;;;11.73;5.20;;;;;;;15.17;61.12;102018.44;6181556;23;20148;-66
2021/09/03 01:40:08;;;;;;;9.03;5.30;;;;;;;15.04;60.96;102023.06;6154644;23;20629;-66
2021/09/03 01:42:34;;;;;;;11.20;5.60;;;;;;;14.87;61.72;101997.09;6179376;23;20506;-66
2021/09/03 01:45:00;;;;;;;14.20;5.90;;;;;;;14.97;62.45;102001.66;6181747;23;20562;-66
2021/09/03 01:47:26;;;;;;;16.87;5.80;;;;;;;14.94;62.62;102005.31;6181125;23;20139;-66
2021/09/03 01:49:51;;;;;;;9.80;5.70;;;;;;;14.76;63.16;102006.88;6179953;23;20156;-66
2021/09/03 01:52:17;;;;;;;7.10;5.30;;;;;;;14.74;63.10;102007.31;6180513;23;20163;-66
2021/09/03 01:54:42;;;;;;;6.07;5.07;;;;;;;14.73;63.32;101993.78;6181499;23;20166;-66
2021/09/03 01:57:08;;;;;;;10.10;5.20;;;;;;;14.57;63.47;102011.22;6181665;23;20236;-66
2021/09/03 01:59:33;;;;;;;9.03;5.57;;;;;;;14.62;63.68;102004.34;6181660;23;20156;-66
2021/09/03 02:01:59;;;;;;;8.47;5.17;;;;;;;14.71;63.31;101999.78;6180648;23;20525;-66
2021/09/03 02:04:24;;;;;;;8.43;5.27;;;;;;;14.76;63.13;102002.06;6181020;23;20160;-66
2021/09/03 02:06:50;;;;;;;11.07;5.27;;;;;;;14.74;62.60;101993.34;6181208;23;20166;-66
2021/09/03 02:09:15;;;;;;;8.40;5.40;;;;;;;14.42;62.31;101940.19;6181274;23;20155;-66
2021/09/03 02:11:41;;;;;;;13.93;6.30;;;;;;;14.79;62.76;101998.44;6179389;23;20250;-66
2021/09/03 02:14:06;;;;;;;8.83;4.80;;;;;;;14.84;62.41;101994.34;6180583;23;20154;-66
2021/09/03 02:16:32;;;;;;;6.93;4.40;;;;;;;14.27;60.35;101952.00;6181572;23;20193;-66
2021/09/03 02:18:58;;;;;;;7.40;4.70;;;;;;;14.48;61.08;102004.59;6181143;23;20157;-66
2021/09/03 02:21:24;;;;;;;11.23;5.40;;;;;;;14.37;62.03;101996.44;6180835;23;20180;-66
2021/09/03 02:23:50;;;;;;;10.97;5.50;;;;;;;14.37;62.21;101996.44;6154329;23;20156;-66
2021/09/03 02:26:15;;;;;;;8.40;5.53;;;;;;;14.29;62.83;101994.22;6181264;23;20206;-66
2021/09/03 02:28:41;;;;;;;9.57;5.63;;;;;;;13.98;63.42;101948.91;6181025;23;20158;-66
2021/09/03 02:31:07;;;;;;;9.17;5.63;;;;;;;14.23;63.17;101984.72;6181239;23;20215;-68
2021/09/03 02:33:33;;;;;;;8.87;5.10;;;;;;;14.24;62.81;101983.53;6179942;23;20602;-66
2021/09/03 02:35:58;;;;;;;8.67;5.57;;;;;;;13.65;63.24;101904.47;6181329;23;20178;-65
2021/09/03 02:38:24;;;;;;;11.07;5.70;;;;;;;14.21;63.29;101987.16;6180807;23;20221;-65
2021/09/03 02:40:49;;;;;;;8.50;5.43;;;;;;;14.15;63.07;101972.88;6180972;23;20154;-66
2021/09/03 02:43:15;;;;;;;9.30;5.07;;;;;;;14.31;62.79;101998.16;6182593;23;20165;-66
2021/09/03 02:45:40;;;;;;;8.57;5.27;;;;;;;14.29;62.32;101994.97;6182468;23;20260;-66
2021/09/03 02:48:06;;;;;;;6.53;5.47;;;;;;;14.07;62.29;101965.88;6183201;23;20157;-66
2021/09/03 02:50:32;;;;;;;8.63;5.87;;;;;;;14.09;62.58;101968.25;6182545;23;20151;-65
2021/09/03 02:52:58;;;;;;;7.67;6.07;;;;;;;13.97;62.42;101952.91;6182441;23;20150;-68
2021/09/03 02:55:28;;;;;;;9.30;5.67;;;;;;;14.27;62.42;102002.19;6182314;23;20270;-66
2021/09/03 02:57:54;;;;;;;7.23;5.47;;;;;;;13.79;62.17;101932.09;6183202;23;20158;-66
2021/09/03 03:00:20;;;;;;;7.90;5.07;;;;;;;14.10;62.03;101995.66;6155808;23;20244;-66
2021/09/03 03:02:46;;;;;;;6.93;5.10;;;;;;;13.80;60.68;102008.91;6182229;23;20203;-66
2021/09/03 03:05:11;;;;;;;7.63;5.33;;;;;;;13.74;60.91;102005.03;6180876;23;20161;-65
2021/09/03 03:07:37;;;;;;;6.93;4.63;;;;;;;13.72;60.79;101993.50;6182762;23;20220;-66
2021/09/03 03:10:05;;;;;;;6.30;4.90;;;;;;;13.78;61.09;102000.19;6182214;23;20160;-66
2021/09/03 03:12:30;;;;;;;7.43;4.70;;;;;;;13.62;61.88;101995.25;6182048;23;20154;-66
2021/09/03 03:14:56;;;;;;;6.53;4.60;;;;;;;13.56;62.26;101983.00;6182731;23;20153;-66
2021/09/03 03:17:22;;;;;;;6.93;4.70;;;;;;;13.21;61.51;101924.25;6182233;23;20183;-66
2021/09/03 03:19:47;;;;;;;8.70;5.10;;;;;;;13.63;61.69;101994.03;6182644;23;20164;-66
2021/09/03 03:22:13;;;;;;;7.63;4.93;;;;;;;13.63;61.60;101994.03;6181705;23;20228;-66
2021/09/03 03:24:38;;;;;;;7.33;5.27;;;;;;;13.57;62.17;102001.28;6182775;23;20153;-65
2021/09/03 03:27:04;;;;;;;6.73;4.83;;;;;;;13.57;62.24;101994.94;6182432;23;20643;-66
2021/09/03 03:29:29;;;;;;;5.60;4.83;;;;;;;13.35;62.33;101974.16;6183150;23;20184;-65
2021/09/03 03:31:55;;;;;;;8.33;4.80;;;;;;;13.51;62.27;102000.19;6181937;23;20156;-66
2021/09/03 03:34:21;;;;;;;8.90;5.17;;;;;;;13.58;62.32;102007.66;6182185;23;20153;-66
2021/09/03 03:36:46;;;;;;;8.47;5.07;;;;;;;13.50;62.03;102009.75;6182105;23;20561;-66
2021/09/03 03:39:12;;;;;;;7.30;5.67;;;;;;;13.44;62.45;102000.28;6182714;23;20149;-66
2021/09/03 03:41:38;;;;;;;9.07;5.57;;;;;;;13.50;62.18;102008.94;6155203;23;20164;-66
2021/09/03 03:44:04;;;;;;;8.87;5.37;;;;;;;13.45;61.93;102012.19;6182054;23;20153;-65
2021/09/03 03:46:30;;;;;;;6.50;4.80;;;;;;;13.26;61.33;102019.22;6182491;23;20193;-65
2021/09/03 03:48:55;;;;;;;8.63;5.00;;;;;;;12.98;61.33;102000.09;6182570;23;20227;-66
2021/09/03 03:51:21;;;;;;;9.03;5.70;;;;;;;12.84;61.70;101988.28;6180212;23;20259;-66
2021/09/03 03:53:47;;;;;;;7.67;5.70;;;;;;;12.94;62.40;102013.22;6181838;23;20175;-66
2021/09/03 03:56:12;;;;;;;8.80;5.90;;;;;;;12.75;63.40;102011.03;6182070;23;20181;-66
2021/09/03 03:58:38;;;;;;;8.27;5.27;;;;;;;12.50;63.85;101966.00;6182202;23;20181;-66
2021/09/03 04:01:03;;;;;;;6.67;5.40;;;;;;;12.66;64.30;102002.38;6182409;23;20152;-66
2021/09/03 04:03:29;;;;;;;9.53;6.53;;;;;;;12.22;64.45;101938.50;6180893;23;20614;-65
2021/09/03 04:05:54;;;;;;;9.90;7.90;;;;;;;12.76;64.91;102011.84;6182478;23;20149;-67
2021/09/03 04:08:20;;;;;;;15.40;13.63;;;;;;;12.86;64.89;102011.72;6179957;23;20165;-65
2021/09/03 04:10:45;;;;;;;30.77;22.57;;;;;;;12.95;64.32;102005.66;6182151;23;20157;-65
2021/09/03 04:13:11;;;;;;;17.80;13.90;;;;;;;13.08;63.63;102018.66;6181112;23;20156;-66
2021/09/03 04:15:36;;;;;;;14.40;10.87;;;;;;;13.18;63.59;102019.72;6182204;23;20180;-66
2021/09/03 04:18:02;;;;;;;15.17;10.57;;;;;;;13.21;63.62;102022.47;6182260;23;20153;-65
2021/09/03 04:20:27;;;;;;;21.23;14.27;;;;;;;13.21;63.67;102016.13;6181229;23;20160;-68
2021/09/03 04:22:53;;;;;;;24.97;19.90;;;;;;;13.13;64.09;102032.13;6181647;23;20157;-65
2021/09/03 04:25:18;;;;;;;23.10;17.43;;;;;;;12.48;63.10;101928.69;6181828;23;20153;-68
2021/09/03 04:27:44;;;;;;;24.37;17.57;;;;;;;13.33;63.30;102021.13;6182301;23;20156;-68
2021/09/03 04:30:10;;;;;;;19.47;17.43;;;;;;;13.22;63.23;102031.59;6179038;23;20622;-66
2021/09/03 04:32:37;;;;;;;20.10;17.43;;;;;;;13.01;64.29;101990.13;6181584;23;20231;-66
2021/09/03 04:35:03;;;;;;;20.47;16.00;;;;;;;13.36;64.54;102017.50;6181601;23;20152;-66
2021/09/03 04:37:28;;;;;;;21.23;15.33;;;;;;;13.33;64.19;102013.53;6181518;23;20187;-66
2021/09/03 04:39:54;;;;;;;23.13;15.40;;;;;;;13.53;63.93;102025.59;6181365;23;20149;-66
2021/09/03 04:42:19;;;;;;;23.77;15.20;;;;;;;13.65;64.04;102022.28;6181642;23;20236;-69
2021/09/03 04:44:45;;;;;;;23.23;14.33;;;;;;;13.32;63.48;101953.50;6181212;23;20153;-66
2021/09/03 04:47:10;;;;;;;26.27;14.93;;;;;;;13.78;63.42;102022.47;6181929;23;20246;-66
2021/09/03 04:49:36;;;;;;;22.80;12.33;;;;;;;13.86;63.28;102019.16;6181416;23;20176;-66
2021/09/03 04:52:02;;;;;;;13.17;7.87;;;;;;;13.60;63.29;101961.47;6180842;23;20604;-66
2021/09/03 04:54:27;;;;;;;12.80;7.90;;;;;;;14.00;63.13;102021.75;6181442;23;20153;-66
2021/09/03 04:56:52;;;;;;;11.90;7.07;;;;;;;14.03;63.19;102020.88;6181294;23;20628;-66
2021/09/03 04:59:18;;;;;;;26.00;12.33;;;;;;;14.20;62.50;102019.81;6155248;23;20157;-66
2021/09/03 05:01:43;;;;;;;14.43;9.83;;;;;;;14.32;62.04;102022.03;6175814;23;20200;-66
2021/09/03 05:04:09;;;;;;;17.07;8.87;;;;;;;14.42;61.93;102029.44;6180204;23;20162;-66
2021/09/03 05:06:34;;;;;;;10.60;7.30;;;;;;;14.46;61.73;102026.56;6177991;23;20228;-66
2021/09/03 05:09:00;;;;;;;11.30;6.47;;;;;;;14.52;61.38;102013.72;6179336;23;20207;-66
2021/09/03 05:11:25;;;;;;;8.67;5.87;;;;;;;14.15;61.27;101967.31;6172735;23;20155;-69
2021/09/03 05:13:51;;;;;;;13.97;7.13;;;;;;;14.62;61.49;102015.53;6173126;23;20622;-69
2021/09/03 05:16:16;;;;;;;9.20;7.17;;;;;;;14.70;61.31;102016.97;6178975;23;20178;-66
2021/09/03 05:18:42;;;;;;;8.73;5.97;;;;;;;14.89;61.16;102021.78;6179436;23;20391;-66
2021/09/03 05:21:07;;;;;;;10.37;5.47;;;;;;;15.03;60.56;102016.72;6179889;23;20173;-66
2021/09/03 05:23:34;;;;;;;13.13;5.70;;;;;;;15.01;60.60;102001.63;6178706;23;20179;-69
2021/09/03 05:25:59;;;;;;;10.23;6.97;;;;;;;15.09;60.42;102009.41;6180077;23;20155;-69
2021/09/03 05:28:27;;;;;;;10.83;6.73;;;;;;;14.91;60.06;101964.31;6178920;23;20154;-66
2021/09/03 05:30:53;;;;;;;9.13;5.90;;;;;;;15.42;60.18;102032.69;6179790;23;20263;-66
2021/09/03 05:33:18;;;;;;;14.20;7.20;;;;;;;15.21;60.16;101983.63;6177533;23;20613;-66
2021/09/03 05:35:44;;;;;;;13.67;7.10;;;;;;;15.35;59.97;101988.13;6179595;23;20187;-66
2021/09/03 05:38:09;;;;;;;11.43;7.67;;;;;;;15.64;59.44;102019.81;6178673;23;20606;-65
2021/09/03 05:40:35;;;;;;;10.90;7.10;;;;;;;15.82;59.68;102034.16;6179218;23;20505;-65
2021/09/03 05:43:01;;;;;;;8.90;7.20;;;;;;;15.93;59.18;102029.13;6178064;23;20655;-65
2021/09/03 05:45:27;;;;;;;10.23;6.83;;;;;;;16.05;59.08;102034.03;6180023;23;20196;-66
2021/09/03 05:47:53;;;;;;;14.40;7.20;;;;;;;15.97;58.56;102005.44;6179292;23;20175;-66
2021/09/03 05:50:19;;;;;;;11.97;7.03;;;;;;;16.03;58.66;102034.47;6179954;23;20332;-66
2021/09/03 05:52:45;;;;;;;10.73;7.30;;;;;;;15.76;59.59;102008.75;6151989;23;20434;-66
2021/09/03 05:55:11;;;;;;;12.63;8.00;;;;;;;15.48;60.13;101970.25;6179429;23;20184;-67
2021/09/03 05:57:37;;;;;;;9.97;7.10;;;;;;;16.14;59.78;102035.00;6179116;23;20154;-66
2021/09/03 06:00:03;;;;;;;10.60;7.20;;;;;;;16.28;59.51;102025.44;6178588;23;20159;-66
2021/09/03 06:02:29;;;;;;;10.47;6.13;;;;;;;16.46;59.30;102031.44;6178520;23;20594;-67
2021/09/03 06:04:54;;;;;;;8.10;5.77;;;;;;;16.06;58.79;101943.31;6179379;23;20222;-67
2021/09/03 06:07:20;;;;;;;7.87;5.67;;;;;;;16.80;57.94;102031.72;6179986;23;20444;-67
2021/09/03 06:09:45;;;;;;;7.73;5.73;;;;;;;16.87;57.90;102037.13;6178772;23;20149;-66
2021/09/03 06:12:11;;;;;;;11.37;5.83;;;;;;;16.99;57.51;102033.59;6178868;23;20626;-66
2021/09/03 06:14:36;;;;;;;8.93;5.17;;;;;;;16.76;57.55;101987.00;6179950;23;20156;-66
2021/09/03 06:17:02;;;;;;;9.60;5.80;;;;;;;17.16;57.01;102029.50;6155537;23;20428;-66
2021/09/03 06:19:27;;;;;;;9.63;6.60;;;;;;;16.79;57.03;101968.53;6181028;23;20151;-66
2021/09/03 06:21:53;;;;;;;13.40;6.40;;;;;;;17.14;56.73;102024.34;6181502;23;20221;-66
2021/09/03 06:24:31;;;;;;;12.73;6.53;;;;;;;17.03;56.90;102003.47;6181233;23;20645;-66
2021/09/03 06:27:05;;;;;;;10.67;6.10;;;;;;;16.91;56.55;101990.97;6181422;23;20141;-66
2021/09/03 06:29:43;;;;;;;10.10;5.73;;;;;;;17.30;56.04;102026.28;6181374;23;20512;-66
2021/09/03 06:32:15;;;;;;;9.97;5.60;;;;;;;17.38;56.13;102027.66;6180032;23;20600;-67
2021/09/03 06:35:00;;;;;;;8.60;5.77;;;;;;;17.44;56.09;102031.50;6181995;23;20180;-67
2021/09/03 06:37:28;;;;;;;11.43;6.30;;;;;;;17.44;55.82;102022.31;6181305;23;20180;-66
2021/09/03 06:39:54;;;;;;;12.03;5.93;;;;;;;17.54;55.86;102027.59;6181273;23;20235;-67
2021/09/03 06:42:20;;;;;;;8.23;6.23;;;;;;;17.46;56.05;102011.44;6181192;23;20487;-66
2021/09/03 06:44:46;;;;;;;9.00;5.90;;;;;;;17.79;55.12;102044.44;6180987;23;20156;-67
2021/09/03 06:47:13;;;;;;;8.37;6.17;;;;;;;17.96;55.06;102031.88;6180609;23;20724;-66
2021/09/03 06:49:39;;;;;;;10.97;6.20;;;;;;;17.92;55.69;102028.41;6180305;23;20627;-67
2021/09/03 06:52:06;;;;;;;9.47;6.13;;;;;;;17.99;55.26;102037.38;6179940;23;20153;-66
2021/09/03 06:54:33;;;;;;;9.53;5.77;;;;;;;17.92;55.66;102027.63;6180926;23;20183;-67
2021/09/03 06:56:59;;;;;;;7.80;5.97;;;;;;;17.98;55.98;102042.66;6180933;23;20177;-66
2021/09/03 06:59:24;;;;;;;7.97;5.40;;;;;;;18.20;55.52;102033.09;6180022;23;20216;-66
2021/09/03 07:01:50;;;;;;;10.73;5.50;;;;;;;18.25;55.68;102040.94;6178694;23;20157;-67
2021/09/03 07:04:15;;;;;;;8.30;5.33;;;;;;;18.35;54.67;102045.47;6180116;23;20220;-67
2021/09/03 07:06:41;;;;;;;9.50;5.97;;;;;;;18.42;54.27;102039.59;6173557;23;20260;-67
2021/09/03 07:09:07;;;;;;;13.03;5.60;;;;;;;18.58;54.45;102036.63;6180991;23;20153;-67
2021/09/03 07:11:35;;;;;;;9.70;5.73;;;;;;;18.69;53.91;102037.06;6180961;23;20218;-67
2021/09/03 07:14:02;;;;;;;10.30;5.67;;;;;;;18.75;53.52;102011.97;6155273;23;20171;-66
2021/09/03 07:16:30;;;;;;;8.80;5.03;;;;;;;18.91;53.19;102037.88;6181682;23;20184;-67
2021/09/03 07:18:56;;;;;;;8.17;5.50;;;;;;;18.88;53.74;102035.97;6182285;23;20151;-67
2021/09/03 07:21:22;;;;;;;8.67;5.53;;;;;;;18.79;53.94;102041.50;6176187;23;20174;-67
2021/09/03 07:23:47;;;;;;;12.33;5.43;;;;;;;18.95;53.54;102044.16;6180318;23;20508;-66
2021/09/03 07:26:13;;;;;;;6.13;4.90;;;;;;;18.66;52.84;101966.97;6179771;23;20166;-67
2021/09/03 07:28:39;;;;;;;9.17;5.50;;;;;;;19.13;52.52;102041.47;6180031;23;20150;-66
2021/09/03 07:31:04;;;;;;;7.27;5.27;;;;;;;18.71;52.72;101984.03;6180091;23;20161;-67
2021/09/03 07:33:30;;;;;;;8.20;5.50;;;;;;;19.20;52.40;102035.63;6179542;23;20152;-67
2021/09/03 07:35:55;;;;;;;12.73;5.60;;;;;;;18.92;52.49;102002.91;6179618;23;20173;-67
2021/09/03 07:38:22;;;;;;;9.13;5.97;;;;;;;19.26;52.49;102044.25;6177917;23;20156;-67
2021/09/03 07:40:47;;;;;;;8.60;5.33;;;;;;;18.97;51.98;101973.44;6179684;23;20161;-67
2021/09/03 07:43:13;;;;;;;7.20;5.77;;;;;;;19.65;51.53;102052.00;6179093;23;20234;-67
2021/09/03 07:45:40;;;;;;;9.60;5.77;;;;;;;19.69;51.07;102052.63;6179972;23;20208;-68
2021/09/03 07:48:06;;;;;;;9.20;5.20;;;;;;;19.67;51.33;102052.31;6179812;23;20145;-67
2021/09/03 07:50:33;;;;;;;9.40;5.63;;;;;;;19.83;51.22;102050.06;6180615;23;20160;-67
2021/09/03 07:52:59;;;;;;;10.63;5.23;;;;;;;20.05;50.16;102050.00;6179830;23;20217;-67
2021/09/03 07:55:25;;;;;;;11.37;5.70;;;;;;;20.14;49.71;102036.78;6179998;23;20658;-66
2021/09/03 07:57:50;;;;;;;9.97;5.37;;;;;;;20.00;49.54;102002.78;6180180;23;20288;-67
2021/09/03 08:00:16;;;;;;;11.00;5.23;;;;;;;20.43;48.98;102034.34;6179881;23;20535;-67
2021/09/03 08:02:43;;;;;;;12.57;5.73;;;;;;;20.18;47.61;102033.81;6179525;23;20152;-67
2021/09/03 08:05:09;;;;;;;7.80;5.20;;;;;;;20.16;48.17;102036.31;6179830;23;20228;-67
2021/09/03 08:07:34;;;;;;;8.00;4.87;;;;;;;20.18;48.06;102040.22;6179741;23;20149;-68
2021/09/03 08:10:00;;;;;;;13.07;5.17;;;;;;;20.25;48.66;102041.94;6179725;23;20159;-67
2021/09/03 08:12:25;;;;;;;8.40;5.30;;;;;;;20.50;47.90;102045.31;6178955;23;20157;-67
2021/09/03 08:14:52;;;;;;;8.97;5.07;;;;;;;20.61;47.81;102036.38;6180321;23;20161;-67
2021/09/03 08:17:17;;;;;;;9.60;5.30;;;;;;;20.74;47.68;102032.19;6179298;23;20582;-67
2021/09/03 08:19:43;;;;;;;6.60;4.97;;;;;;;20.74;47.26;102006.84;6152534;23;20163;-67
2021/09/03 08:22:09;;;;;;;10.97;5.20;;;;;;;20.73;47.04;102012.94;6179158;23;20157;-67
2021/09/03 08:24:35;;;;;;;7.30;5.07;;;;;;;20.88;47.15;102031.53;6179884;23;20226;-67
2021/09/03 08:27:01;;;;;;;9.03;5.20;;;;;;;20.67;47.59;101990.22;6180143;23;20145;-67
2021/09/03 08:29:27;;;;;;;11.30;5.90;;;;;;;20.88;47.29;102033.59;6179437;23;20607;-67
2021/09/03 08:31:52;;;;;;;9.77;5.87;;;;;;;21.07;47.00;102035.16;6179596;23;20472;-67
2021/09/03 08:34:18;;;;;;;8.67;5.40;;;;;;;21.19;47.34;102028.59;6177403;23;20509;-67
2021/09/03 08:36:43;;;;;;;7.37;5.40;;;;;;;21.16;47.10;102023.91;6180580;23;20181;-67
2021/09/03 08:39:09;;;;;;;8.67;5.33;;;;;;;21.23;46.72;102015.91;6177577;23;20600;-67
2021/09/03 08:41:37;;;;;;;7.70;5.30;;;;;;;21.36;46.05;102016.50;6179389;23;20210;-68
2021/09/03 08:44:03;;;;;;;7.10;4.90;;;;;;;21.30;45.50;101992.22;6174678;23;20153;-68
2021/09/03 08:46:34;;;;;;;9.83;5.33;;;;;;;21.48;45.31;102015.53;6178696;23;20536;-68
2021/09/03 08:49:05;;;;;;;10.17;5.47;;;;;;;21.59;45.35;102015.03;6177775;23;20157;-67
2021/09/03 08:51:30;;;;;;;8.87;5.03;;;;;;;21.78;44.60;102014.50;6178134;23;20164;-68
2021/09/03 08:53:56;;;;;;;6.97;4.47;;;;;;;21.95;44.10;102009.28;6180081;23;20153;-67
2021/09/03 08:56:22;;;;;;;6.70;4.40;;;;;;;22.14;42.76;102003.03;6178950;23;20172;-67
2021/09/03 08:58:49;;;;;;;7.53;4.60;;;;;;;21.87;42.87;101965.72;6179667;23;20149;-67
2021/09/03 09:01:16;;;;;;;6.03;4.60;;;;;;;22.32;42.38;102008.56;6178199;23;20153;-67
2021/09/03 09:03:44;;;;;;;5.80;4.30;;;;;;;22.33;42.13;102001.69;6179545;23;20160;-67
2021/09/03 09:06:11;;;;;;;8.43;4.53;;;;;;;22.37;42.75;102004.31;6179088;23;20145;-67
2021/09/03 09:08:39;;;;;;;9.43;4.83;;;;;;;22.32;42.53;101999.34;6179633;23;20160;-67
2021/09/03 09:11:10;;;;;;;7.07;4.80;;;;;;;22.28;42.62;101999.53;6178922;23;20153;-67
2021/09/03 09:13:38;;;;;;;6.10;4.33;;;;;;;22.31;42.79;101994.94;6178505;23;20137;-67
2021/09/03 09:16:10;;;;;;;7.33;4.27;;;;;;;22.62;41.96;101984.84;6179049;23;20264;-67
2021/09/03 09:18:42;;;;;;;5.90;3.90;;;;;;;22.60;41.92;101989.41;6180096;23;20203;-67
2021/09/03 09:21:14;;;;;;;7.20;4.43;;;;;;;22.84;41.52;101990.97;6178958;23;20133;-67
2021/09/03 09:23:48;;;;;;;7.03;4.27;;;;;;;22.82;41.35;101945.41;6178499;23;20499;-67
2021/09/03 09:26:16;;;;;;;8.33;4.67;;;;;;;23.10;40.83;101977.03;6179189;23;20141;-67
2021/09/03 09:28:41;;;;;;;5.37;4.30;;;;;;;23.25;40.59;101969.38;6179303;23;20149;-67
2021/09/03 09:31:08;;;;;;;8.33;4.50;;;;;;;23.45;39.88;101960.97;6179160;23;20156;-68
2021/09/03 09:33:34;;;;;;;8.67;4.20;;;;;;;23.76;39.34;101967.66;6178609;23;20228;-68
2021/09/03 09:36:00;;;;;;;5.80;4.30;;;;;;;24.02;39.29;101964.97;6179967;23;20176;-67
2021/09/03 09:38:28;;;;;;;6.53;4.40;;;;;;;24.05;39.32;101961.91;6179098;23;20184;-67
2021/09/03 09:41:01;;;;;;;6.57;4.87;;;;;;;24.02;39.26;101974.25;6179023;23;20163;-68
2021/09/03 09:43:39;;;;;;;11.03;5.30;;;;;;;24.09;39.22;101961.69;6178807;23;20149;-67
2021/09/03 09:46:07;;;;;;;9.17;4.97;;;;;;;24.02;39.22;101964.97;6179639;23;20235;-67
2021/09/03 09:49:06;;;;;;;9.63;5.33;;;;;;;24.03;38.79;101960.84;6180228;23;20187;-67
2021/09/03 09:51:43;;;;;;;9.13;5.10;;;;;;;23.87;38.92;101961.38;6179244;23;20169;-67
2021/09/03 09:54:11;;;;;;;6.77;4.93;;;;;;;23.73;39.42;101954.47;6181077;23;20220;-68
2021/09/03 09:56:57;;;;;;;7.47;4.67;;;;;;;23.60;38.80;101947.56;6181656;23;20181;-68
2021/09/03 09:59:25;;;;;;;6.07;4.63;;;;;;;23.50;39.38;101938.41;6180902;23;20431;-67
2021/09/03 10:01:53;;;;;;;6.20;4.17;;;;;;;23.64;39.14;101922.69;6175989;23;20160;-67
2021/09/03 10:04:22;;;;;;;7.23;4.30;;;;;;;24.14;37.94;101944.78;6180372;23;20153;-68
2021/09/03 10:06:49;;;;;;;5.97;3.87;;;;;;;24.15;37.76;101929.34;6179542;23;20232;-68
2021/09/03 10:09:17;;;;;;;6.57;3.90;;;;;;;24.10;37.53;101873.41;6180817;23;20228;-68
2021/09/03 10:11:45;;;;;;;6.13;4.20;;;;;;;24.72;35.94;101941.66;6181475;23;20850;-68
2021/09/03 10:14:16;;;;;;;7.73;4.00;;;;;;;24.90;35.50;101912.22;6180089;23;20224;-68
2021/09/03 10:16:46;;;;;;;5.93;3.63;;;;;;;25.44;34.76;101933.88;6182661;23;20204;-68
2021/09/03 10:19:15;;;;;;;4.47;3.40;;;;;;;25.69;33.86;101930.19;6182600;23;20496;-68
2021/09/03 10:21:41;;;;;;;8.87;3.90;;;;;;;25.93;33.75;101937.06;6182038;23;20157;-68
2021/09/03 10:24:14;;;;;;;6.80;4.00;;;;;;;26.12;32.89;101932.53;6181896;23;20604;-67
2021/09/03 10:26:47;;;;;;;6.83;3.77;;;;;;;26.39;32.78;101931.09;6182254;23;20161;-67
2021/09/03 10:29:26;;;;;;;6.67;4.47;;;;;;;26.34;32.15;101929.78;6182518;23;20242;-67
2021/09/03 10:32:07;;;;;;;5.90;4.00;;;;;;;26.50;32.08;101914.84;6181773;23;20152;-67
2021/09/03 10:34:38;;;;;;;6.17;3.23;;;;;;;26.76;31.75;101906.16;6182442;23;20236;-67
2021/09/03 10:37:04;;;;;;;7.07;3.13;;;;;;;26.73;31.25;101912.88;6155824;23;20548;-67
2021/09/03 10:40:03;;;;;;;5.57;3.50;;;;;;;27.04;31.32;101913.44;6182430;23;20153;-67
2021/09/03 10:42:55;;;;;;;5.63;3.80;;;;;;;27.22;31.06;101909.34;6182147;23;20580;-68
2021/09/03 10:45:31;;;;;;;5.93;3.40;;;;;;;27.33;30.64;101907.25;6153096;23;20548;-68
2021/09/03 10:47:57;;;;;;;5.63;3.15;;;;;;;27.09;30.52;101903.34;6181909;23;20156;-67
2021/09/03 10:50:25;;;;;;;5.95;3.30;;;;;;;26.83;30.41;101895.06;6181804;23;20620;-67
2021/09/03 10:53:06;;;;;;;5.93;3.92;;;;;;;26.45;31.51;101897.78;6181960;23;20279;-67
2021/09/03 10:55:50;;;;;;;6.57;3.67;;;;;;;26.37;32.36;101885.34;6182992;23;20156;-67
2021/09/03 10:58:46;;;;;;;5.03;3.33;;;;;;;26.85;31.88;101880.31;6155681;23;20184;-67
2021/09/03 11:03:46;;;;;;;6.23;3.60;;;;;;;27.16;30.30;101880.06;6180814;23;20161;-67
2021/09/03 11:06:26;;;;;;;8.63;3.55;;;;;;;27.21;29.93;101874.41;6182517;23;20564;-68
2021/09/03 11:08:56;;;;;;;9.05;3.75;;;;;;;27.29;30.34;101875.44;6182295;23;20216;-67
2021/09/03 11:11:22;;;;;;;5.75;3.90;;;;;;;27.55;30.17;101877.97;6181751;23;20172;-68
2021/09/03 11:13:53;;;;;;;4.93;3.45;;;;;;;27.67;30.49;101876.66;6181941;23;20155;-67
2021/09/03 11:16:39;;;;;;;4.28;3.40;;;;;;;27.74;29.75;101874.03;6181763;23;20176;-67
2021/09/03 11:19:10;;;;;;;8.75;3.53;;;;;;;27.92;29.96;101869.88;6182983;23;20149;-67
2021/09/03 11:21:38;;;;;;;5.93;3.42;;;;;;;28.08;28.58;101863.34;6181149;23;20157;-67
2021/09/03 11:24:05;;;;;;;6.25;3.22;;;;;;;27.76;28.87;101864.97;6182191;23;20538;-67